sensor_id;sensor_type;location;lat;lon;timestamp;P1;durP1;ratioP1;P2;durP2;ratioP2
54261;SDS011;40174;52.364;6.452;2022-11-15T00:00:10;19.00;;;7.90;;
54261;SDS011;40174;52.364;6.452;2022-11-15T00:05:41;23.45;;;7.53;;
54261;SDS011;40174;52.364;6.452;2022-11-15T00:08:28;18.90;;;7.55;;
54261;SDS011;40174;52.364;6.452;2022-11-15T00:11:14;21.23;;;7.68;;
54261;SDS011;40174;52.364;6.452;2022-11-15T00:13:59;21.63;;;8.65;;
54261;SDS011;40174;52.364;6.452;2022-11-15T00:16:45;17.50;;;7.07;;
54261;SDS011;40174;52.364;6.452;2022-11-15T00:19:31;21.77;;;7.50;;
54261;SDS011;40174;52.364;6.452;2022-11-15T00:22:18;17.88;;;7.90;;
54261;SDS011;40174;52.364;6.452;2022-11-15T00:25:04;19.52;;;7.15;;
54261;SDS011;40174;52.364;6.452;2022-11-15T00:27:50;23.77;;;8.45;;
54261;SDS011;40174;52.364;6.452;2022-11-15T00:30:36;22.27;;;8.48;;
54261;SDS011;40174;52.364;6.452;2022-11-15T00:33:21;23.77;;;8.85;;
54261;SDS011;40174;52.364;6.452;2022-11-15T00:36:07;21.27;;;7.57;;
54261;SDS011;40174;52.364;6.452;2022-11-15T00:38:55;17.85;;;7.47;;
54261;SDS011;40174;52.364;6.452;2022-11-15T00:41:41;23.00;;;8.45;;
54261;SDS011;40174;52.364;6.452;2022-11-15T00:44:26;23.57;;;8.77;;
54261;SDS011;40174;52.364;6.452;2022-11-15T00:47:11;23.20;;;8.25;;
54261;SDS011;40174;52.364;6.452;2022-11-15T00:49:57;21.25;;;7.43;;
54261;SDS011;40174;52.364;6.452;2022-11-15T00:52:42;23.60;;;8.05;;
54261;SDS011;40174;52.364;6.452;2022-11-15T00:55:29;23.50;;;9.18;;
54261;SDS011;40174;52.364;6.452;2022-11-15T00:58:14;20.15;;;7.65;;
54261;SDS011;40174;52.364;6.452;2022-11-15T01:01:06;18.67;;;8.07;;
54261;SDS011;40174;52.364;6.452;2022-11-15T01:03:53;19.20;;;7.88;;
54261;SDS011;40174;52.364;6.452;2022-11-15T01:06:39;21.17;;;7.72;;
54261;SDS011;40174;52.364;6.452;2022-11-15T01:09:24;20.33;;;8.05;;
54261;SDS011;40174;52.364;6.452;2022-11-15T01:12:10;23.83;;;8.65;;
54261;SDS011;40174;52.364;6.452;2022-11-15T01:14:56;26.70;;;9.50;;
54261;SDS011;40174;52.364;6.452;2022-11-15T01:17:41;22.05;;;8.80;;
54261;SDS011;40174;52.364;6.452;2022-11-15T01:20:26;23.90;;;8.90;;
54261;SDS011;40174;52.364;6.452;2022-11-15T01:23:12;23.10;;;8.82;;
54261;SDS011;40174;52.364;6.452;2022-11-15T01:25:58;24.08;;;8.98;;
54261;SDS011;40174;52.364;6.452;2022-11-15T01:28:45;29.80;;;9.90;;
54261;SDS011;40174;52.364;6.452;2022-11-15T01:31:30;25.48;;;9.25;;
54261;SDS011;40174;52.364;6.452;2022-11-15T01:34:16;20.25;;;9.55;;
54261;SDS011;40174;52.364;6.452;2022-11-15T01:37:01;26.38;;;9.35;;
54261;SDS011;40174;52.364;6.452;2022-11-15T01:39:46;31.15;;;10.13;;
54261;SDS011;40174;52.364;6.452;2022-11-15T01:42:31;28.25;;;11.00;;
54261;SDS011;40174;52.364;6.452;2022-11-15T01:45:18;25.27;;;9.93;;
54261;SDS011;40174;52.364;6.452;2022-11-15T01:48:04;22.10;;;8.70;;
54261;SDS011;40174;52.364;6.452;2022-11-15T01:50:49;22.92;;;9.35;;
54261;SDS011;40174;52.364;6.452;2022-11-15T01:53:35;24.05;;;8.57;;
54261;SDS011;40174;52.364;6.452;2022-11-15T01:56:25;24.02;;;9.43;;
54261;SDS011;40174;52.364;6.452;2022-11-15T01:59:15;31.42;;;10.90;;
54261;SDS011;40174;52.364;6.452;2022-11-15T02:02:01;35.33;;;10.73;;
54261;SDS011;40174;52.364;6.452;2022-11-15T02:04:47;34.55;;;10.20;;
54261;SDS011;40174;52.364;6.452;2022-11-15T02:10:20;27.73;;;10.57;;
54261;SDS011;40174;52.364;6.452;2022-11-15T02:13:06;28.58;;;10.73;;
54261;SDS011;40174;52.364;6.452;2022-11-15T02:15:52;24.52;;;10.93;;
54261;SDS011;40174;52.364;6.452;2022-11-15T02:18:48;30.50;;;10.82;;
54261;SDS011;40174;52.364;6.452;2022-11-15T02:21:37;33.35;;;10.52;;
54261;SDS011;40174;52.364;6.452;2022-11-15T02:24:34;24.58;;;10.32;;
54261;SDS011;40174;52.364;6.452;2022-11-15T02:27:39;29.13;;;11.07;;
54261;SDS011;40174;52.364;6.452;2022-11-15T02:30:37;26.92;;;10.32;;
54261;SDS011;40174;52.364;6.452;2022-11-15T02:33:28;24.27;;;10.40;;
54261;SDS011;40174;52.364;6.452;2022-11-15T02:36:23;30.63;;;12.15;;
54261;SDS011;40174;52.364;6.452;2022-11-15T02:39:19;27.48;;;10.88;;
54261;SDS011;40174;52.364;6.452;2022-11-15T02:42:13;29.88;;;11.00;;
54261;SDS011;40174;52.364;6.452;2022-11-15T02:45:17;27.70;;;10.77;;
54261;SDS011;40174;52.364;6.452;2022-11-15T02:48:07;25.75;;;10.93;;
54261;SDS011;40174;52.364;6.452;2022-11-15T02:50:54;34.78;;;12.35;;
54261;SDS011;40174;52.364;6.452;2022-11-15T02:53:40;25.90;;;11.02;;
54261;SDS011;40174;52.364;6.452;2022-11-15T02:56:25;25.95;;;11.38;;
54261;SDS011;40174;52.364;6.452;2022-11-15T02:59:13;30.48;;;12.00;;
54261;SDS011;40174;52.364;6.452;2022-11-15T03:02:21;32.25;;;11.68;;
54261;SDS011;40174;52.364;6.452;2022-11-15T03:05:19;32.80;;;11.98;;
54261;SDS011;40174;52.364;6.452;2022-11-15T03:08:10;31.98;;;11.82;;
54261;SDS011;40174;52.364;6.452;2022-11-15T03:11:03;26.33;;;11.65;;
54261;SDS011;40174;52.364;6.452;2022-11-15T03:13:53;26.15;;;11.95;;
54261;SDS011;40174;52.364;6.452;2022-11-15T03:16:44;28.35;;;11.82;;
54261;SDS011;40174;52.364;6.452;2022-11-15T03:19:34;24.48;;;10.80;;
54261;SDS011;40174;52.364;6.452;2022-11-15T03:22:28;27.88;;;11.80;;
54261;SDS011;40174;52.364;6.452;2022-11-15T03:25:19;29.58;;;11.60;;
54261;SDS011;40174;52.364;6.452;2022-11-15T03:28:08;29.98;;;12.82;;
54261;SDS011;40174;52.364;6.452;2022-11-15T03:30:56;24.27;;;11.00;;
54261;SDS011;40174;52.364;6.452;2022-11-15T03:33:43;30.02;;;12.77;;
54261;SDS011;40174;52.364;6.452;2022-11-15T03:36:28;23.20;;;9.82;;
54261;SDS011;40174;52.364;6.452;2022-11-15T03:39:18;28.42;;;11.68;;
54261;SDS011;40174;52.364;6.452;2022-11-15T03:42:08;34.45;;;11.90;;
54261;SDS011;40174;52.364;6.452;2022-11-15T03:45:02;29.50;;;12.35;;
54261;SDS011;40174;52.364;6.452;2022-11-15T03:47:58;25.17;;;10.98;;
54261;SDS011;40174;52.364;6.452;2022-11-15T03:50:46;30.73;;;11.40;;
54261;SDS011;40174;52.364;6.452;2022-11-15T03:53:33;26.75;;;10.13;;
54261;SDS011;40174;52.364;6.452;2022-11-15T03:56:19;23.85;;;10.55;;
54261;SDS011;40174;52.364;6.452;2022-11-15T03:59:04;24.52;;;10.23;;
54261;SDS011;40174;52.364;6.452;2022-11-15T04:01:50;22.13;;;10.20;;
54261;SDS011;40174;52.364;6.452;2022-11-15T04:04:35;24.10;;;10.35;;
54261;SDS011;40174;52.364;6.452;2022-11-15T04:07:20;28.15;;;10.35;;
54261;SDS011;40174;52.364;6.452;2022-11-15T04:10:06;26.25;;;11.05;;
54261;SDS011;40174;52.364;6.452;2022-11-15T04:12:54;29.67;;;11.05;;
54261;SDS011;40174;52.364;6.452;2022-11-15T04:15:40;29.02;;;10.95;;
54261;SDS011;40174;52.364;6.452;2022-11-15T04:18:25;25.20;;;10.60;;
54261;SDS011;40174;52.364;6.452;2022-11-15T04:21:10;24.63;;;10.48;;
54261;SDS011;40174;52.364;6.452;2022-11-15T04:24:21;23.95;;;10.32;;
54261;SDS011;40174;52.364;6.452;2022-11-15T04:27:07;24.17;;;10.90;;
54261;SDS011;40174;52.364;6.452;2022-11-15T04:29:53;27.02;;;10.82;;
54261;SDS011;40174;52.364;6.452;2022-11-15T04:32:39;23.65;;;9.57;;
54261;SDS011;40174;52.364;6.452;2022-11-15T04:35:24;24.50;;;9.68;;
54261;SDS011;40174;52.364;6.452;2022-11-15T04:38:10;33.05;;;11.82;;
54261;SDS011;40174;52.364;6.452;2022-11-15T04:40:55;24.40;;;10.85;;
54261;SDS011;40174;52.364;6.452;2022-11-15T04:43:40;22.23;;;10.40;;
54261;SDS011;40174;52.364;6.452;2022-11-15T04:46:27;23.33;;;10.35;;
54261;SDS011;40174;52.364;6.452;2022-11-15T04:49:12;21.80;;;10.27;;
54261;SDS011;40174;52.364;6.452;2022-11-15T04:51:58;23.23;;;10.82;;
54261;SDS011;40174;52.364;6.452;2022-11-15T04:54:43;24.00;;;10.15;;
54261;SDS011;40174;52.364;6.452;2022-11-15T04:57:28;28.42;;;10.77;;
54261;SDS011;40174;52.364;6.452;2022-11-15T05:00:15;21.67;;;9.20;;
54261;SDS011;40174;52.364;6.452;2022-11-15T05:03:02;27.10;;;10.43;;
54261;SDS011;40174;52.364;6.452;2022-11-15T05:06:05;25.10;;;10.63;;
54261;SDS011;40174;52.364;6.452;2022-11-15T05:08:51;24.85;;;10.68;;
54261;SDS011;40174;52.364;6.452;2022-11-15T05:11:36;26.38;;;9.57;;
54261;SDS011;40174;52.364;6.452;2022-11-15T05:14:21;29.25;;;11.05;;
54261;SDS011;40174;52.364;6.452;2022-11-15T05:17:07;28.27;;;10.05;;
54261;SDS011;40174;52.364;6.452;2022-11-15T05:19:53;29.92;;;11.10;;
54261;SDS011;40174;52.364;6.452;2022-11-15T05:22:39;25.60;;;10.95;;
54261;SDS011;40174;52.364;6.452;2022-11-15T05:25:24;21.63;;;9.65;;
54261;SDS011;40174;52.364;6.452;2022-11-15T05:28:10;23.67;;;9.55;;
54261;SDS011;40174;52.364;6.452;2022-11-15T05:30:59;25.05;;;10.38;;
54261;SDS011;40174;52.364;6.452;2022-11-15T05:33:45;25.55;;;10.50;;
54261;SDS011;40174;52.364;6.452;2022-11-15T05:36:33;24.33;;;10.27;;
54261;SDS011;40174;52.364;6.452;2022-11-15T05:39:20;24.88;;;9.38;;
54261;SDS011;40174;52.364;6.452;2022-11-15T05:42:06;23.55;;;9.80;;
54261;SDS011;40174;52.364;6.452;2022-11-15T05:44:54;23.15;;;9.98;;
54261;SDS011;40174;52.364;6.452;2022-11-15T05:47:39;23.45;;;10.65;;
54261;SDS011;40174;52.364;6.452;2022-11-15T05:53:12;23.67;;;9.48;;
54261;SDS011;40174;52.364;6.452;2022-11-15T05:55:59;21.30;;;9.70;;
54261;SDS011;40174;52.364;6.452;2022-11-15T05:58:44;24.48;;;10.43;;
54261;SDS011;40174;52.364;6.452;2022-11-15T06:01:30;26.80;;;11.15;;
54261;SDS011;40174;52.364;6.452;2022-11-15T06:04:15;24.42;;;9.88;;
54261;SDS011;40174;52.364;6.452;2022-11-15T06:07:00;25.13;;;10.32;;
54261;SDS011;40174;52.364;6.452;2022-11-15T06:09:47;21.40;;;9.48;;
54261;SDS011;40174;52.364;6.452;2022-11-15T06:12:32;22.88;;;9.60;;
54261;SDS011;40174;52.364;6.452;2022-11-15T06:15:18;22.95;;;9.90;;
54261;SDS011;40174;52.364;6.452;2022-11-15T06:18:03;23.17;;;9.73;;
54261;SDS011;40174;52.364;6.452;2022-11-15T06:20:48;24.95;;;11.07;;
54261;SDS011;40174;52.364;6.452;2022-11-15T06:23:34;22.52;;;9.27;;
54261;SDS011;40174;52.364;6.452;2022-11-15T06:26:21;24.55;;;9.07;;
54261;SDS011;40174;52.364;6.452;2022-11-15T06:29:06;22.95;;;10.13;;
54261;SDS011;40174;52.364;6.452;2022-11-15T06:31:51;22.70;;;9.98;;
54261;SDS011;40174;52.364;6.452;2022-11-15T06:34:37;27.15;;;9.85;;
54261;SDS011;40174;52.364;6.452;2022-11-15T06:37:22;18.50;;;8.75;;
54261;SDS011;40174;52.364;6.452;2022-11-15T06:40:08;24.75;;;10.05;;
54261;SDS011;40174;52.364;6.452;2022-11-15T06:42:58;25.80;;;9.85;;
54261;SDS011;40174;52.364;6.452;2022-11-15T06:45:43;21.45;;;9.85;;
54261;SDS011;40174;52.364;6.452;2022-11-15T06:48:29;24.27;;;9.70;;
54261;SDS011;40174;52.364;6.452;2022-11-15T06:51:16;23.80;;;9.98;;
54261;SDS011;40174;52.364;6.452;2022-11-15T06:54:01;22.45;;;9.85;;
54261;SDS011;40174;52.364;6.452;2022-11-15T06:56:47;23.33;;;9.57;;
54261;SDS011;40174;52.364;6.452;2022-11-15T06:59:34;22.35;;;10.30;;
54261;SDS011;40174;52.364;6.452;2022-11-15T07:02:19;23.20;;;10.07;;
54261;SDS011;40174;52.364;6.452;2022-11-15T07:05:05;23.67;;;10.15;;
54261;SDS011;40174;52.364;6.452;2022-11-15T07:10:37;26.27;;;11.00;;
54261;SDS011;40174;52.364;6.452;2022-11-15T07:13:23;25.67;;;11.07;;
54261;SDS011;40174;52.364;6.452;2022-11-15T07:16:10;27.00;;;10.35;;
54261;SDS011;40174;52.364;6.452;2022-11-15T07:18:55;25.50;;;9.75;;
54261;SDS011;40174;52.364;6.452;2022-11-15T07:21:41;29.77;;;11.43;;
54261;SDS011;40174;52.364;6.452;2022-11-15T07:24:26;25.23;;;10.18;;
54261;SDS011;40174;52.364;6.452;2022-11-15T07:27:11;32.85;;;10.70;;
54261;SDS011;40174;52.364;6.452;2022-11-15T07:29:57;27.00;;;10.15;;
54261;SDS011;40174;52.364;6.452;2022-11-15T07:32:43;26.13;;;10.83;;
54261;SDS011;40174;52.364;6.452;2022-11-15T07:35:29;24.40;;;10.68;;
54261;SDS011;40174;52.364;6.452;2022-11-15T07:38:16;25.80;;;9.30;;
54261;SDS011;40174;52.364;6.452;2022-11-15T07:41:04;30.55;;;10.10;;
54261;SDS011;40174;52.364;6.452;2022-11-15T07:43:51;29.33;;;9.40;;
54261;SDS011;40174;52.364;6.452;2022-11-15T07:49:23;26.00;;;9.65;;
54261;SDS011;40174;52.364;6.452;2022-11-15T07:52:08;24.40;;;9.77;;
54261;SDS011;40174;52.364;6.452;2022-11-15T07:54:54;23.88;;;9.35;;
54261;SDS011;40174;52.364;6.452;2022-11-15T07:57:39;23.92;;;10.05;;
54261;SDS011;40174;52.364;6.452;2022-11-15T08:00:24;19.15;;;8.52;;
54261;SDS011;40174;52.364;6.452;2022-11-15T08:03:10;23.00;;;8.73;;
54261;SDS011;40174;52.364;6.452;2022-11-15T08:05:59;25.15;;;8.75;;
54261;SDS011;40174;52.364;6.452;2022-11-15T08:08:45;19.98;;;8.82;;
54261;SDS011;40174;52.364;6.452;2022-11-15T08:11:31;20.02;;;8.52;;
54261;SDS011;40174;52.364;6.452;2022-11-15T08:14:17;20.45;;;8.18;;
54261;SDS011;40174;52.364;6.452;2022-11-15T08:17:05;22.70;;;8.93;;
54261;SDS011;40174;52.364;6.452;2022-11-15T08:19:50;21.58;;;8.60;;
54261;SDS011;40174;52.364;6.452;2022-11-15T08:22:37;16.55;;;8.23;;
54261;SDS011;40174;52.364;6.452;2022-11-15T08:25:22;24.40;;;8.63;;
54261;SDS011;40174;52.364;6.452;2022-11-15T08:28:10;18.20;;;8.75;;
54261;SDS011;40174;52.364;6.452;2022-11-15T08:30:55;17.25;;;8.40;;
54261;SDS011;40174;52.364;6.452;2022-11-15T08:33:40;18.33;;;8.32;;
54261;SDS011;40174;52.364;6.452;2022-11-15T08:36:26;17.13;;;7.57;;
54261;SDS011;40174;52.364;6.452;2022-11-15T08:41:57;17.02;;;7.65;;
54261;SDS011;40174;52.364;6.452;2022-11-15T08:44:43;16.83;;;7.38;;
54261;SDS011;40174;52.364;6.452;2022-11-15T08:47:28;19.50;;;8.05;;
54261;SDS011;40174;52.364;6.452;2022-11-15T08:50:14;18.92;;;8.70;;
54261;SDS011;40174;52.364;6.452;2022-11-15T08:53:04;17.73;;;8.23;;
54261;SDS011;40174;52.364;6.452;2022-11-15T08:55:51;16.95;;;8.27;;
54261;SDS011;40174;52.364;6.452;2022-11-15T08:58:36;19.50;;;7.90;;
54261;SDS011;40174;52.364;6.452;2022-11-15T09:01:22;16.10;;;7.68;;
54261;SDS011;40174;52.364;6.452;2022-11-15T09:04:07;14.88;;;7.45;;
54261;SDS011;40174;52.364;6.452;2022-11-15T09:06:52;20.05;;;8.40;;
54261;SDS011;40174;52.364;6.452;2022-11-15T09:09:38;15.43;;;6.93;;
54261;SDS011;40174;52.364;6.452;2022-11-15T09:12:24;15.65;;;7.07;;
54261;SDS011;40174;52.364;6.452;2022-11-15T09:15:10;17.80;;;6.70;;
54261;SDS011;40174;52.364;6.452;2022-11-15T09:17:57;16.10;;;6.28;;
54261;SDS011;40174;52.364;6.452;2022-11-15T09:20:43;15.20;;;5.78;;
54261;SDS011;40174;52.364;6.452;2022-11-15T09:23:28;13.88;;;5.40;;
54261;SDS011;40174;52.364;6.452;2022-11-15T09:26:13;14.50;;;6.05;;
54261;SDS011;40174;52.364;6.452;2022-11-15T09:29:00;14.85;;;6.07;;
54261;SDS011;40174;52.364;6.452;2022-11-15T09:31:46;12.60;;;5.15;;
54261;SDS011;40174;52.364;6.452;2022-11-15T09:34:31;10.43;;;5.13;;
54261;SDS011;40174;52.364;6.452;2022-11-15T09:37:17;14.85;;;5.97;;
54261;SDS011;40174;52.364;6.452;2022-11-15T09:40:02;12.05;;;5.30;;
54261;SDS011;40174;52.364;6.452;2022-11-15T09:45:50;11.18;;;4.55;;
54261;SDS011;40174;52.364;6.452;2022-11-15T09:48:48;10.88;;;4.63;;
54261;SDS011;40174;52.364;6.452;2022-11-15T09:51:25;9.63;;;4.68;;
54261;SDS011;40174;52.364;6.452;2022-11-15T09:54:01;9.18;;;4.40;;
54261;SDS011;40174;52.364;6.452;2022-11-15T09:56:32;12.07;;;4.25;;
54261;SDS011;40174;52.364;6.452;2022-11-15T09:59:10;9.63;;;3.90;;
54261;SDS011;40174;52.364;6.452;2022-11-15T10:01:53;14.85;;;4.22;;
54261;SDS011;40174;52.364;6.452;2022-11-15T10:04:26;7.03;;;3.42;;
54261;SDS011;40174;52.364;6.452;2022-11-15T10:06:54;7.28;;;2.97;;
54261;SDS011;40174;52.364;6.452;2022-11-15T10:09:29;6.68;;;2.60;;
54261;SDS011;40174;52.364;6.452;2022-11-15T10:12:02;5.70;;;2.80;;
54261;SDS011;40174;52.364;6.452;2022-11-15T10:14:29;6.78;;;2.85;;
54261;SDS011;40174;52.364;6.452;2022-11-15T10:17:15;9.85;;;2.75;;
54261;SDS011;40174;52.364;6.452;2022-11-15T10:20:05;7.63;;;2.60;;
54261;SDS011;40174;52.364;6.452;2022-11-15T10:22:38;6.18;;;2.65;;
54261;SDS011;40174;52.364;6.452;2022-11-15T10:25:13;8.15;;;3.00;;
54261;SDS011;40174;52.364;6.452;2022-11-15T10:27:44;6.30;;;2.55;;
54261;SDS011;40174;52.364;6.452;2022-11-15T10:30:17;7.93;;;3.08;;
54261;SDS011;40174;52.364;6.452;2022-11-15T10:32:46;7.40;;;2.78;;
54261;SDS011;40174;52.364;6.452;2022-11-15T10:35:22;9.48;;;3.65;;
54261;SDS011;40174;52.364;6.452;2022-11-15T10:37:50;9.57;;;3.45;;
54261;SDS011;40174;52.364;6.452;2022-11-15T10:40:18;7.97;;;3.65;;
54261;SDS011;40174;52.364;6.452;2022-11-15T10:42:47;8.15;;;2.80;;
54261;SDS011;40174;52.364;6.452;2022-11-15T10:45:23;9.57;;;3.28;;
54261;SDS011;40174;52.364;6.452;2022-11-15T10:47:53;9.35;;;2.88;;
54261;SDS011;40174;52.364;6.452;2022-11-15T10:50:27;8.10;;;2.80;;
54261;SDS011;40174;52.364;6.452;2022-11-15T10:52:56;5.40;;;2.40;;
54261;SDS011;40174;52.364;6.452;2022-11-15T10:55:24;10.20;;;2.88;;
54261;SDS011;40174;52.364;6.452;2022-11-15T10:57:54;5.55;;;2.55;;
54261;SDS011;40174;52.364;6.452;2022-11-15T11:00:27;5.60;;;2.67;;
54261;SDS011;40174;52.364;6.452;2022-11-15T11:03:05;5.55;;;2.42;;
54261;SDS011;40174;52.364;6.452;2022-11-15T11:05:50;7.85;;;2.97;;
54261;SDS011;40174;52.364;6.452;2022-11-15T11:08:30;7.75;;;2.70;;
54261;SDS011;40174;52.364;6.452;2022-11-15T11:10:58;7.90;;;2.80;;
54261;SDS011;40174;52.364;6.452;2022-11-15T11:13:26;4.72;;;2.58;;
54261;SDS011;40174;52.364;6.452;2022-11-15T11:15:55;5.90;;;2.30;;
54261;SDS011;40174;52.364;6.452;2022-11-15T11:18:28;6.18;;;2.50;;
54261;SDS011;40174;52.364;6.452;2022-11-15T11:21:02;5.17;;;2.63;;
54261;SDS011;40174;52.364;6.452;2022-11-15T11:23:37;5.30;;;2.22;;
54261;SDS011;40174;52.364;6.452;2022-11-15T11:26:18;8.35;;;2.05;;
54261;SDS011;40174;52.364;6.452;2022-11-15T11:29:02;5.57;;;2.28;;
54261;SDS011;40174;52.364;6.452;2022-11-15T11:31:40;5.97;;;2.28;;
54261;SDS011;40174;52.364;6.452;2022-11-15T11:34:15;7.88;;;2.20;;
54261;SDS011;40174;52.364;6.452;2022-11-15T11:36:54;4.15;;;2.05;;
54261;SDS011;40174;52.364;6.452;2022-11-15T11:39:28;4.90;;;2.15;;
54261;SDS011;40174;52.364;6.452;2022-11-15T11:42:08;5.55;;;1.90;;
54261;SDS011;40174;52.364;6.452;2022-11-15T11:44:46;4.63;;;1.73;;
54261;SDS011;40174;52.364;6.452;2022-11-15T11:47:24;8.02;;;1.92;;
54261;SDS011;40174;52.364;6.452;2022-11-15T11:49:59;2.83;;;1.60;;
54261;SDS011;40174;52.364;6.452;2022-11-15T11:52:33;3.83;;;1.80;;
54261;SDS011;40174;52.364;6.452;2022-11-15T11:55:05;6.03;;;1.58;;
54261;SDS011;40174;52.364;6.452;2022-11-15T11:57:41;2.47;;;1.23;;
54261;SDS011;40174;52.364;6.452;2022-11-15T12:00:15;4.32;;;1.30;;
54261;SDS011;40174;52.364;6.452;2022-11-15T12:02:46;2.80;;;1.30;;
54261;SDS011;40174;52.364;6.452;2022-11-15T12:05:22;5.38;;;1.48;;
54261;SDS011;40174;52.364;6.452;2022-11-15T12:07:57;1.75;;;1.20;;
54261;SDS011;40174;52.364;6.452;2022-11-15T12:10:28;3.03;;;1.10;;
54261;SDS011;40174;52.364;6.452;2022-11-15T12:12:58;2.13;;;1.05;;
54261;SDS011;40174;52.364;6.452;2022-11-15T12:15:31;1.95;;;0.95;;
54261;SDS011;40174;52.364;6.452;2022-11-15T12:18:03;1.23;;;0.70;;
54261;SDS011;40174;52.364;6.452;2022-11-15T12:20:32;2.72;;;1.02;;
54261;SDS011;40174;52.364;6.452;2022-11-15T12:23:03;1.38;;;0.75;;
54261;SDS011;40174;52.364;6.452;2022-11-15T12:25:40;3.22;;;0.98;;
54261;SDS011;40174;52.364;6.452;2022-11-15T12:28:13;3.95;;;0.90;;
54261;SDS011;40174;52.364;6.452;2022-11-15T12:30:46;4.22;;;0.90;;
54261;SDS011;40174;52.364;6.452;2022-11-15T12:33:31;3.80;;;1.00;;
54261;SDS011;40174;52.364;6.452;2022-11-15T12:36:03;3.38;;;0.82;;
54261;SDS011;40174;52.364;6.452;2022-11-15T12:38:52;2.92;;;0.75;;
54261;SDS011;40174;52.364;6.452;2022-11-15T12:41:21;1.80;;;0.75;;
54261;SDS011;40174;52.364;6.452;2022-11-15T12:43:49;3.47;;;0.80;;
54261;SDS011;40174;52.364;6.452;2022-11-15T12:46:21;1.83;;;0.50;;
54261;SDS011;40174;52.364;6.452;2022-11-15T12:48:53;2.22;;;0.75;;
54261;SDS011;40174;52.364;6.452;2022-11-15T12:57:27;3.03;;;0.77;;
54261;SDS011;40174;52.364;6.452;2022-11-15T13:00:35;3.10;;;0.68;;
54261;SDS011;40174;52.364;6.452;2022-11-15T13:05:56;3.33;;;0.47;;
54261;SDS011;40174;52.364;6.452;2022-11-15T13:08:40;1.90;;;0.70;;
54261;SDS011;40174;52.364;6.452;2022-11-15T13:17:25;2.97;;;0.73;;
54261;SDS011;40174;52.364;6.452;2022-11-15T13:19:57;1.98;;;0.88;;
54261;SDS011;40174;52.364;6.452;2022-11-15T13:22:26;5.38;;;0.77;;
54261;SDS011;40174;52.364;6.452;2022-11-15T13:25:16;1.35;;;0.90;;
54261;SDS011;40174;52.364;6.452;2022-11-15T13:27:48;1.30;;;0.80;;
54261;SDS011;40174;52.364;6.452;2022-11-15T13:30:19;2.17;;;0.90;;
54261;SDS011;40174;52.364;6.452;2022-11-15T13:32:47;1.55;;;0.80;;
54261;SDS011;40174;52.364;6.452;2022-11-15T13:35:18;1.65;;;1.00;;
54261;SDS011;40174;52.364;6.452;2022-11-15T13:37:47;3.47;;;1.10;;
54261;SDS011;40174;52.364;6.452;2022-11-15T13:40:25;4.05;;;1.00;;
54261;SDS011;40174;52.364;6.452;2022-11-15T13:42:55;2.42;;;0.90;;
54261;SDS011;40174;52.364;6.452;2022-11-15T13:45:23;2.85;;;1.15;;
54261;SDS011;40174;52.364;6.452;2022-11-15T13:47:52;3.58;;;1.17;;
54261;SDS011;40174;52.364;6.452;2022-11-15T13:50:22;1.80;;;0.93;;
54261;SDS011;40174;52.364;6.452;2022-11-15T13:52:55;2.72;;;0.85;;
54261;SDS011;40174;52.364;6.452;2022-11-15T13:55:25;6.43;;;1.20;;
54261;SDS011;40174;52.364;6.452;2022-11-15T13:57:53;6.30;;;1.08;;
54261;SDS011;40174;52.364;6.452;2022-11-15T14:00:28;4.60;;;1.40;;
54261;SDS011;40174;52.364;6.452;2022-11-15T14:03:05;3.58;;;1.65;;
54261;SDS011;40174;52.364;6.452;2022-11-15T14:05:34;3.17;;;1.33;;
54261;SDS011;40174;52.364;6.452;2022-11-15T14:08:02;4.07;;;1.48;;
54261;SDS011;40174;52.364;6.452;2022-11-15T14:10:32;5.47;;;1.63;;
54261;SDS011;40174;52.364;6.452;2022-11-15T14:13:00;5.72;;;1.80;;
54261;SDS011;40174;52.364;6.452;2022-11-15T14:15:28;5.00;;;1.90;;
54261;SDS011;40174;52.364;6.452;2022-11-15T14:17:57;5.43;;;1.70;;
54261;SDS011;40174;52.364;6.452;2022-11-15T14:20:34;4.15;;;1.92;;
54261;SDS011;40174;52.364;6.452;2022-11-15T14:23:03;5.00;;;2.03;;
54261;SDS011;40174;52.364;6.452;2022-11-15T14:25:33;5.70;;;1.75;;
54261;SDS011;40174;52.364;6.452;2022-11-15T14:28:09;3.15;;;1.50;;
54261;SDS011;40174;52.364;6.452;2022-11-15T14:30:38;6.85;;;1.88;;
54261;SDS011;40174;52.364;6.452;2022-11-15T14:33:15;4.15;;;1.77;;
54261;SDS011;40174;52.364;6.452;2022-11-15T14:35:45;4.90;;;1.35;;
54261;SDS011;40174;52.364;6.452;2022-11-15T14:38:11;5.70;;;1.35;;
54261;SDS011;40174;52.364;6.452;2022-11-15T14:40:40;3.45;;;1.35;;
54261;SDS011;40174;52.364;6.452;2022-11-15T14:43:08;3.53;;;1.20;;
54261;SDS011;40174;52.364;6.452;2022-11-15T14:45:35;5.63;;;1.90;;
54261;SDS011;40174;52.364;6.452;2022-11-15T14:48:02;5.00;;;1.38;;
54261;SDS011;40174;52.364;6.452;2022-11-15T14:50:29;7.65;;;1.48;;
54261;SDS011;40174;52.364;6.452;2022-11-15T14:52:56;4.32;;;1.92;;
54261;SDS011;40174;52.364;6.452;2022-11-15T14:55:23;5.60;;;1.58;;
54261;SDS011;40174;52.364;6.452;2022-11-15T14:57:54;2.63;;;1.17;;
54261;SDS011;40174;52.364;6.452;2022-11-15T15:00:21;5.20;;;1.40;;
54261;SDS011;40174;52.364;6.452;2022-11-15T15:02:48;3.63;;;1.40;;
54261;SDS011;40174;52.364;6.452;2022-11-15T15:05:17;5.07;;;1.77;;
54261;SDS011;40174;52.364;6.452;2022-11-15T15:07:45;2.75;;;1.00;;
54261;SDS011;40174;52.364;6.452;2022-11-15T15:10:12;4.47;;;1.60;;
54261;SDS011;40174;52.364;6.452;2022-11-15T15:12:40;4.80;;;1.38;;
54261;SDS011;40174;52.364;6.452;2022-11-15T15:15:11;4.28;;;1.42;;
54261;SDS011;40174;52.364;6.452;2022-11-15T15:17:39;2.92;;;1.00;;
54261;SDS011;40174;52.364;6.452;2022-11-15T15:20:06;4.20;;;1.50;;
54261;SDS011;40174;52.364;6.452;2022-11-15T15:22:33;3.55;;;1.13;;
54261;SDS011;40174;52.364;6.452;2022-11-15T15:25:00;5.00;;;1.70;;
54261;SDS011;40174;52.364;6.452;2022-11-15T15:27:27;7.95;;;1.25;;
54261;SDS011;40174;52.364;6.452;2022-11-15T15:29:54;3.72;;;1.38;;
54261;SDS011;40174;52.364;6.452;2022-11-15T15:32:22;3.17;;;1.27;;
54261;SDS011;40174;52.364;6.452;2022-11-15T15:34:48;5.15;;;1.25;;
54261;SDS011;40174;52.364;6.452;2022-11-15T15:37:21;3.08;;;1.50;;
54261;SDS011;40174;52.364;6.452;2022-11-15T15:39:49;4.72;;;1.20;;
54261;SDS011;40174;52.364;6.452;2022-11-15T15:42:17;3.90;;;1.55;;
54261;SDS011;40174;52.364;6.452;2022-11-15T15:44:44;5.53;;;1.55;;
54261;SDS011;40174;52.364;6.452;2022-11-15T15:47:11;4.65;;;1.65;;
54261;SDS011;40174;52.364;6.452;2022-11-15T15:49:39;3.20;;;1.30;;
54261;SDS011;40174;52.364;6.452;2022-11-15T15:52:06;6.68;;;1.38;;
54261;SDS011;40174;52.364;6.452;2022-11-15T15:54:33;3.53;;;1.20;;
54261;SDS011;40174;52.364;6.452;2022-11-15T15:56:59;7.03;;;1.30;;
54261;SDS011;40174;52.364;6.452;2022-11-15T15:59:26;3.38;;;1.05;;
54261;SDS011;40174;52.364;6.452;2022-11-15T16:01:52;2.28;;;1.02;;
54261;SDS011;40174;52.364;6.452;2022-11-15T16:04:19;5.38;;;1.50;;
54261;SDS011;40174;52.364;6.452;2022-11-15T16:06:47;5.70;;;1.60;;
54261;SDS011;40174;52.364;6.452;2022-11-15T16:09:16;2.42;;;1.08;;
54261;SDS011;40174;52.364;6.452;2022-11-15T16:11:44;4.20;;;0.90;;
54261;SDS011;40174;52.364;6.452;2022-11-15T16:14:11;3.00;;;1.35;;
54261;SDS011;40174;52.364;6.452;2022-11-15T16:16:38;2.15;;;1.10;;
54261;SDS011;40174;52.364;6.452;2022-11-15T16:19:05;7.90;;;1.27;;
54261;SDS011;40174;52.364;6.452;2022-11-15T16:21:31;4.47;;;1.20;;
54261;SDS011;40174;52.364;6.452;2022-11-15T16:23:59;3.33;;;1.08;;
54261;SDS011;40174;52.364;6.452;2022-11-15T16:26:27;3.78;;;1.33;;
54261;SDS011;40174;52.364;6.452;2022-11-15T16:28:55;2.08;;;0.93;;